Time;durP1;ratioP1;P1;durP2;ratioP2;P2;SDS_P1;SDS_P2;PMS_P1;PMS_P2;Temp;Humidity;BMP_temperature;BMP_pressure;BME280_temperature;BME280_humidity;BME280_pressure;Samples;Min_cycle;Max_cycle;Signal;HPM_P1;HPM_P2
2021/06/04 00:00:39;;;;;;;10.07;6.82;;;15.50;99.90;;;;;;5122341;28;20119;-76
2021/06/04 00:03:09;;;;;;;9.65;7.00;;;15.40;99.90;;;;;;5123863;28;20032;-77
2021/06/04 00:05:38;;;;;;;11.07;7.03;;;15.10;99.90;;;;;;5123283;27;20016;-76
2021/06/04 00:08:05;;;;;;;15.27;9.43;;;15.10;99.90;;;;;;5122746;28;20020;-76
2021/06/04 00:10:36;;;;;;;11.85;8.95;;;15.10;99.90;;;;;;5123322;28;20042;-77
2021/06/04 00:13:34;;;;;;;14.70;8.00;;;15.00;99.90;;;;;;5122600;28;20024;-77
2021/06/04 00:16:19;;;;;;;10.00;7.03;;;15.00;99.90;;;;;;5124020;28;20359;-77
2021/06/04 00:18:46;;;;;;;12.52;8.55;;;14.90;99.90;;;;;;5121180;28;20514;-77
2021/06/04 00:21:16;;;;;;;125.68;78.40;;;15.00;99.90;;;;;;5123107;27;20088;-77
2021/06/04 00:23:43;;;;;;;148.63;94.22;;;15.00;99.90;;;;;;5121371;28;20077;-78
2021/06/04 00:26:11;;;;;;;108.70;69.82;;;15.00;99.90;;;;;;5122334;28;20066;-76
2021/06/04 00:28:37;;;;;;;43.72;27.40;;;15.10;99.90;;;;;;5122639;28;20019;-76
2021/06/04 00:31:05;;;;;;;15.50;11.85;;;15.10;99.90;;;;;;5120947;28;20016;-77
2021/06/04 00:33:31;;;;;;;13.63;9.52;;;15.00;99.90;;;;;;5118584;28;20024;-77
2021/06/04 00:35:57;;;;;;;12.35;8.48;;;14.90;99.90;;;;;;5120863;27;20024;-77
2021/06/04 00:38:23;;;;;;;12.15;8.15;;;14.90;99.90;;;;;;5120505;28;20041;-75
2021/06/04 00:40:55;;;;;;;13.32;7.85;;;14.80;99.90;;;;;;5120022;28;20032;-78
2021/06/04 00:43:22;;;;;;;12.38;8.10;;;14.80;99.90;;;;;;5121926;28;20389;-77
2021/06/04 00:45:51;;;;;;;9.60;7.88;;;14.80;99.90;;;;;;5123231;28;20020;-77
2021/06/04 00:48:19;;;;;;;10.73;7.95;;;14.80;99.90;;;;;;5122699;28;20482;-76
2021/06/04 00:50:53;;;;;;;11.82;7.50;;;14.60;99.90;;;;;;5123169;28;20020;-77
2021/06/04 00:53:22;;;;;;;9.02;6.78;;;14.50;99.90;;;;;;5121528;28;20027;-76
2021/06/04 00:55:50;;;;;;;11.05;7.50;;;14.40;99.90;;;;;;5121611;28;20047;-78
2021/06/04 00:58:20;;;;;;;12.05;7.72;;;14.30;99.90;;;;;;5123243;28;20047;-76
2021/06/04 01:00:50;;;;;;;11.27;7.40;;;14.20;99.90;;;;;;5122530;28;20469;-76
2021/06/04 01:03:22;;;;;;;10.75;7.32;;;14.30;99.90;;;;;;5121474;28;20477;-76
2021/06/04 01:05:48;;;;;;;10.82;7.38;;;14.40;99.90;;;;;;5123148;28;20015;-77
2021/06/04 01:08:20;;;;;;;9.80;7.75;;;14.40;99.90;;;;;;5122267;28;20004;-76
2021/06/04 01:11:04;;;;;;;11.18;7.05;;;14.30;99.90;;;;;;5122203;28;20773;-76
2021/06/04 01:13:47;;;;;;;10.98;7.88;;;14.30;99.90;;;;;;5121198;28;20034;-77
2021/06/04 01:16:22;;;;;;;12.15;7.80;;;14.40;99.90;;;;;;5121249;28;20485;-78
2021/06/04 01:19:16;;;;;;;11.35;7.25;;;14.50;99.90;;;;;;5122642;28;20354;-77
2021/06/04 01:21:53;;;;;;;11.13;7.13;;;14.40;99.90;;;;;;5122944;28;20024;-77
2021/06/04 01:24:40;;;;;;;11.13;7.47;;;14.30;99.90;;;;;;5122554;28;20079;-76
2021/06/04 01:27:11;;;;;;;12.90;7.75;;;14.30;99.90;;;;;;5122508;28;20054;-77
2021/06/04 01:29:43;;;;;;;14.65;7.38;;;14.40;99.90;;;;;;5123544;27;20032;-77
2021/06/04 01:32:22;;;;;;;9.88;6.75;;;14.50;99.90;;;;;;5122903;28;20102;-76
2021/06/04 01:34:57;;;;;;;11.10;7.30;;;14.50;99.90;;;;;;5122065;28;20378;-76
2021/06/04 01:37:31;;;;;;;11.88;6.90;;;14.50;99.90;;;;;;5122123;28;20098;-76
2021/06/04 01:40:01;;;;;;;10.60;7.15;;;14.40;99.90;;;;;;5121590;28;20032;-77
2021/06/04 01:42:30;;;;;;;11.45;7.28;;;14.30;99.90;;;;;;5121564;28;20022;-77
2021/06/04 01:45:07;;;;;;;19.15;7.63;;;14.20;99.90;;;;;;5121378;28;20019;-77
2021/06/04 01:47:42;;;;;;;9.18;7.13;;;14.20;99.90;;;;;;5121072;28;20167;-77
2021/06/04 01:50:17;;;;;;;12.32;7.07;;;14.10;99.90;;;;;;5122069;28;20024;-78
2021/06/04 01:52:44;;;;;;;14.38;7.90;;;14.10;99.90;;;;;;5121983;28;20023;-78
2021/06/04 01:55:23;;;;;;;10.77;7.45;;;14.10;99.90;;;;;;5122469;27;20043;-77
2021/06/04 01:57:58;;;;;;;12.02;7.28;;;14.20;99.90;;;;;;5121736;28;20505;-76
2021/06/04 02:00:29;;;;;;;;;;;14.20;99.90;;;;;;5122381;28;20037;-76
2021/06/04 02:02:56;;;;;;;10.02;7.45;;;14.30;99.90;;;;;;5118451;28;20377;-79
2021/06/04 02:05:26;;;;;;;10.52;7.57;;;14.30;99.90;;;;;;5120749;28;20462;-76
2021/06/04 02:07:53;;;;;;;9.50;7.88;;;14.10;99.90;;;;;;5121166;28;20030;-77
2021/06/04 02:10:26;;;;;;;10.07;7.65;;;13.90;99.90;;;;;;5120047;28;20019;-77
2021/06/04 02:12:52;;;;;;;9.73;7.57;;;14.00;99.90;;;;;;5122675;28;20034;-79
2021/06/04 02:15:24;;;;;;;11.40;7.50;;;14.00;99.90;;;;;;5118195;28;20478;-78
2021/06/04 02:18:08;;;;;;;15.63;7.95;;;14.00;99.90;;;;;;5120254;28;20034;-77
2021/06/04 02:20:41;;;;;;;12.13;7.95;;;13.80;99.90;;;;;;5120394;28;20020;-77
2021/06/04 02:23:10;;;;;;;18.73;8.50;;;13.70;99.90;;;;;;5120125;28;20007;-77
2021/06/04 02:25:51;;;;;;;23.75;8.93;;;13.80;99.90;;;;;;5119440;28;20508;-75
2021/06/04 02:28:40;;;;;;;12.82;8.10;;;13.90;99.90;;;;;;5120742;28;20030;-75
2021/06/04 02:31:19;;;;;;;20.08;8.95;;;13.90;99.90;;;;;;5109524;28;20032;-78
2021/06/04 02:34:13;;;;;;;19.75;8.48;;;13.70;99.90;;;;;;5119363;28;20118;-78
2021/06/04 02:36:56;;;;;;;15.57;7.88;;;13.60;99.90;;;;;;5112964;28;20084;-78
2021/06/04 02:39:29;;;;;;;15.18;8.50;;;13.60;99.90;;;;;;5120859;28;20035;-77
2021/06/04 02:42:17;;;;;;;18.30;8.13;;;13.60;99.90;;;;;;5118751;28;20023;-78
2021/06/04 02:45:12;;;;;;;13.52;8.15;;;13.60;99.90;;;;;;5118957;28;20028;-88
2021/06/04 02:47:43;;;;;;;12.02;7.90;;;13.60;99.90;;;;;;5119763;28;20024;-88
2021/06/04 02:50:16;;;;;;;18.13;8.00;;;13.70;99.90;;;;;;5118184;28;20054;-84
2021/06/04 02:52:45;;;;;;;13.77;8.32;;;13.80;99.90;;;;;;5120541;28;20529;-80
2021/06/04 02:55:27;;;;;;;14.07;8.68;;;13.70;99.90;;;;;;5119783;28;20023;-76
2021/06/04 02:57:53;;;;;;;11.82;8.13;;;13.60;99.90;;;;;;5119371;28;20039;-81
2021/06/04 03:00:28;;;;;;;12.18;8.13;;;13.70;99.90;;;;;;5119705;28;20023;-77
2021/06/04 03:02:55;;;;;;;12.27;7.28;;;13.70;99.90;;;;;;5120722;28;20031;-78
2021/06/04 03:05:30;;;;;;;11.20;7.53;;;13.60;99.90;;;;;;5118464;28;20096;-78
2021/06/04 03:07:57;;;;;;;9.63;7.90;;;13.60;99.90;;;;;;5116792;28;20020;-76
2021/06/04 03:10:38;;;;;;;12.15;8.35;;;13.60;99.90;;;;;;5118539;28;20030;-77
2021/06/04 03:13:08;;;;;;;16.25;8.60;;;13.40;99.90;;;;;;5119090;28;20004;-78
2021/06/04 03:15:48;;;;;;;16.08;8.57;;;13.40;99.90;;;;;;5122522;28;20027;-78
2021/06/04 03:18:22;;;;;;;14.40;9.05;;;13.50;99.90;;;;;;5120024;28;20026;-78
2021/06/04 03:20:49;;;;;;;13.60;9.27;;;13.40;99.90;;;;;;5119485;28;20024;-78
2021/06/04 03:23:19;;;;;;;18.88;9.65;;;13.40;99.90;;;;;;5118446;28;20008;-76
2021/06/04 03:25:50;;;;;;;20.02;9.68;;;13.40;99.90;;;;;;5116510;28;20055;-78
2021/06/04 03:28:19;;;;;;;17.73;9.27;;;13.30;99.90;;;;;;5119926;28;20069;-77
2021/06/04 03:30:47;;;;;;;17.80;8.40;;;13.40;99.90;;;;;;5119028;28;20099;-78
2021/06/04 03:33:16;;;;;;;14.02;9.73;;;13.50;99.90;;;;;;5118417;28;20011;-76
2021/06/04 03:35:43;;;;;;;17.98;10.32;;;13.50;99.90;;;;;;5121046;28;20023;-75
2021/06/04 03:38:10;;;;;;;18.88;10.77;;;13.50;99.90;;;;;;5118697;28;20418;-78
2021/06/04 03:40:37;;;;;;;21.77;11.95;;;13.40;99.90;;;;;;5117957;28;20031;-76
2021/06/04 03:43:07;;;;;;;20.10;11.35;;;13.30;99.90;;;;;;5119176;28;20027;-77
2021/06/04 03:45:37;;;;;;;19.17;11.15;;;13.40;99.90;;;;;;5121307;28;20039;-77
2021/06/04 03:48:07;;;;;;;19.73;10.55;;;13.50;99.90;;;;;;5119854;28;20087;-77
2021/06/04 03:50:33;;;;;;;23.13;10.48;;;13.40;99.90;;;;;;5118065;28;20019;-76
2021/06/04 03:52:59;;;;;;;17.35;9.38;;;13.50;99.90;;;;;;5115270;28;20407;-78
2021/06/04 03:55:26;;;;;;;14.52;8.93;;;13.70;99.90;;;;;;5114975;28;20020;-78
2021/06/04 03:57:54;;;;;;;14.57;8.98;;;13.70;99.90;;;;;;5116539;28;20031;-77
2021/06/04 04:00:38;;;;;;;14.55;8.68;;;13.70;99.90;;;;;;5115209;28;20028;-78
2021/06/04 04:03:04;;;;;;;14.75;8.30;;;13.70;99.90;;;;;;5116556;28;20457;-76
2021/06/04 04:05:32;;;;;;;19.10;10.20;;;14.00;99.90;;;;;;5117844;28;20035;-77
2021/06/04 04:07:58;;;;;;;18.15;9.52;;;13.90;99.90;;;;;;5116753;28;20537;-78
2021/06/04 04:10:26;;;;;;;15.13;9.90;;;13.80;99.90;;;;;;5117817;28;20024;-77
2021/06/04 04:12:53;;;;;;;16.35;9.43;;;13.90;99.90;;;;;;5118395;28;20019;-79
2021/06/04 04:15:22;;;;;;;14.77;10.68;;;14.10;99.90;;;;;;5117166;28;20028;-78
2021/06/04 04:17:50;;;;;;;17.02;10.00;;;13.80;99.90;;;;;;5122026;28;20059;-77
2021/06/04 04:20:42;;;;;;;14.30;9.77;;;13.90;99.90;;;;;;5120292;28;20027;-76
2021/06/04 04:23:10;;;;;;;12.93;9.50;;;14.00;99.90;;;;;;5115330;28;20028;-77
2021/06/04 04:25:40;;;;;;;14.82;9.85;;;13.90;99.90;;;;;;5121631;28;20035;-78
2021/06/04 04:28:11;;;;;;;14.05;9.23;;;14.00;99.90;;;;;;5117075;28;20031;-77
2021/06/04 04:30:37;;;;;;;15.90;9.40;;;13.90;99.90;;;;;;5120640;28;20084;-78
2021/06/04 04:33:04;;;;;;;14.68;9.23;;;14.10;99.90;;;;;;5121817;28;20038;-78
2021/06/04 04:35:34;;;;;;;13.05;8.30;;;14.30;99.90;;;;;;5121164;28;20035;-77
2021/06/04 04:38:00;;;;;;;17.90;10.57;;;14.60;99.90;;;;;;5119433;28;20434;-78
2021/06/04 04:40:34;;;;;;;16.23;10.70;;;14.70;99.90;;;;;;5118402;28;20050;-77
2021/06/04 04:43:00;;;;;;;17.00;11.43;;;14.80;99.90;;;;;;5119246;28;20024;-78
2021/06/04 04:45:27;;;;;;;12.63;8.70;;;15.00;99.90;;;;;;5124644;28;20038;-78
2021/06/04 04:47:54;;;;;;;16.58;8.48;;;15.10;99.90;;;;;;5122605;28;20024;-78
2021/06/04 04:50:20;;;;;;;14.13;8.02;;;15.00;99.90;;;;;;5124460;28;20023;-79
2021/06/04 04:52:46;;;;;;;13.77;8.60;;;15.20;99.90;;;;;;5125663;28;20011;-79
2021/06/04 04:55:13;;;;;;;13.70;8.65;;;15.30;99.90;;;;;;5123940;28;20496;-78
2021/06/04 04:57:40;;;;;;;14.25;8.63;;;15.30;99.90;;;;;;5124908;28;20026;-78
2021/06/04 05:00:11;;;;;;;15.52;8.63;;;15.30;99.90;;;;;;5124597;27;20031;-76
2021/06/04 05:02:37;;;;;;;10.82;8.43;;;15.50;99.90;;;;;;5121061;28;20110;-79
2021/06/04 05:05:04;;;;;;;15.48;8.15;;;15.50;99.90;;;;;;5122955;28;20045;-77
2021/06/04 05:07:30;;;;;;;11.82;8.02;;;15.50;99.90;;;;;;5123279;28;20016;-78
2021/06/04 05:09:57;;;;;;;11.40;7.82;;;15.60;99.90;;;;;;5123520;28;20429;-78
2021/06/04 05:12:24;;;;;;;12.70;7.90;;;15.70;99.90;;;;;;5123972;28;20465;-77
2021/06/04 05:14:50;;;;;;;11.57;7.50;;;15.80;99.90;;;;;;5126867;28;20026;-77
2021/06/04 05:17:17;;;;;;;12.15;8.00;;;15.90;99.90;;;;;;5118987;28;20031;-78
2021/06/04 05:19:46;;;;;;;12.48;7.38;;;16.10;99.90;;;;;;5120433;28;20019;-79
2021/06/04 05:22:13;;;;;;;13.30;7.50;;;16.10;99.90;;;;;;5116559;28;20027;-78
2021/06/04 05:24:39;;;;;;;10.00;6.93;;;16.30;99.90;;;;;;5118463;28;20028;-78
2021/06/04 05:27:06;;;;;;;9.77;7.10;;;16.50;99.90;;;;;;5117143;28;20432;-79
2021/06/04 05:29:32;;;;;;;15.15;7.28;;;16.60;99.90;;;;;;5116942;27;20073;-82
2021/06/04 05:31:58;;;;;;;11.07;7.35;;;16.70;99.90;;;;;;5117780;28;20020;-79
2021/06/04 05:34:25;;;;;;;9.40;6.55;;;16.70;99.90;;;;;;5118495;27;20461;-79
2021/06/04 05:36:51;;;;;;;10.10;6.72;;;16.80;99.90;;;;;;5120174;28;20014;-77
2021/06/04 05:39:21;;;;;;;9.48;6.90;;;17.00;99.90;;;;;;5120672;28;20003;-78
2021/06/04 05:41:51;;;;;;;11.45;6.88;;;17.10;99.90;;;;;;5122517;28;20019;-78
2021/06/04 05:44:20;;;;;;;10.48;6.03;;;17.10;99.90;;;;;;5122788;28;20076;-82
2021/06/04 05:46:49;;;;;;;12.63;6.70;;;17.30;99.00;;;;;;5123422;28;20355;-78
2021/06/04 05:49:15;;;;;;;11.38;6.25;;;17.40;99.00;;;;;;5121270;28;20028;-79
2021/06/04 05:51:41;;;;;;;11.55;5.72;;;17.50;98.60;;;;;;5123634;28;20063;-78
2021/06/04 05:54:07;;;;;;;9.45;5.70;;;17.60;98.30;;;;;;5125741;28;20077;-78
2021/06/04 05:56:34;;;;;;;8.55;5.43;;;17.70;97.80;;;;;;5124673;28;20020;-81
2021/06/04 05:59:00;;;;;;;10.77;6.50;;;17.80;97.80;;;;;;5123894;28;20143;-81
2021/06/04 06:01:33;;;;;;;8.00;5.63;;;17.90;98.00;;;;;;5123608;28;20040;-83
2021/06/04 06:03:59;;;;;;;8.65;5.80;;;18.00;98.00;;;;;;5122970;28;20003;-80
2021/06/04 06:06:25;;;;;;;11.60;7.07;;;18.10;97.70;;;;;;5122908;28;20066;-79
2021/06/04 06:08:51;;;;;;;12.10;6.10;;;18.20;97.40;;;;;;5121735;28;20027;-80
2021/06/04 06:11:24;;;;;;;10.88;6.70;;;18.30;97.60;;;;;;5124926;28;20019;-89
2021/06/04 06:13:51;;;;;;;7.57;5.82;;;18.40;96.80;;;;;;5124913;28;20363;-85
2021/06/04 06:16:18;;;;;;;11.35;7.00;;;18.50;96.40;;;;;;5124352;28;20020;-81
2021/06/04 06:18:44;;;;;;;7.32;5.95;;;18.70;96.30;;;;;;5123167;28;20026;-84
2021/06/04 06:21:10;;;;;;;11.32;5.43;;;18.70;95.90;;;;;;5122837;28;20028;-80
2021/06/04 06:23:37;;;;;;;7.90;5.55;;;18.90;96.00;;;;;;5124056;28;20022;-87
2021/06/04 06:26:10;;;;;;;9.85;6.00;;;19.10;96.30;;;;;;5122130;28;20058;-86
2021/06/04 06:28:38;;;;;;;9.15;5.72;;;19.30;96.00;;;;;;5123298;28;20050;-85
2021/06/04 06:31:07;;;;;;;9.85;5.90;;;19.30;95.80;;;;;;5123096;28;20004;-84
2021/06/04 06:33:34;;;;;;;8.70;5.30;;;19.40;96.20;;;;;;5124207;28;20019;-87
2021/06/04 06:36:04;;;;;;;9.02;5.72;;;19.60;94.70;;;;;;5124139;28;20020;-85
2021/06/04 06:38:30;;;;;;;10.02;5.65;;;19.80;94.80;;;;;;5122966;28;20191;-86
2021/06/04 06:40:59;;;;;;;10.40;5.63;;;19.90;95.10;;;;;;5124790;28;20020;-88
2021/06/04 06:43:28;;;;;;;9.73;6.40;;;20.00;94.30;;;;;;5122705;28;20015;-84
2021/06/04 06:45:54;;;;;;;10.82;6.05;;;;;;;;;;5123296;28;20027;-85
2021/06/04 06:48:21;;;;;;;11.35;6.30;;;20.30;93.90;;;;;;5122310;28;20027;-81
2021/06/04 06:50:48;;;;;;;6.63;5.10;;;20.40;93.50;;;;;;5121424;28;20132;-81
2021/06/04 06:53:17;;;;;;;6.75;5.00;;;20.40;92.00;;;;;;5115861;28;20032;-86
2021/06/04 06:55:45;;;;;;;7.45;5.10;;;20.50;92.00;;;;;;5116064;28;20024;-87
2021/06/04 06:58:13;;;;;;;9.75;5.18;;;20.70;92.60;;;;;;5117966;28;20469;-81
2021/06/04 07:00:43;;;;;;;12.25;5.53;;;20.80;92.20;;;;;;5117906;28;20020;-81
2021/06/04 07:03:11;;;;;;;9.40;4.93;;;21.00;93.10;;;;;;5121215;28;20096;-80
2021/06/04 07:05:37;;;;;;;9.38;4.32;;;21.00;91.80;;;;;;5118390;28;20019;-81
2021/06/04 07:08:06;;;;;;;7.82;5.07;;;21.20;89.50;;;;;;5120223;28;20015;-81
2021/06/04 07:10:34;;;;;;;9.13;5.45;;;21.40;90.20;;;;;;5119705;28;20055;-80
2021/06/04 07:13:04;;;;;;;9.55;4.82;;;21.50;90.50;;;;;;5122310;28;20024;-83
2021/06/04 07:15:30;;;;;;;7.72;4.72;;;21.40;90.20;;;;;;5118431;28;20015;-77
2021/06/04 07:17:58;;;;;;;12.65;4.60;;;21.80;91.00;;;;;;5119945;28;20007;-87
2021/06/04 07:20:28;;;;;;;7.85;5.45;;;22.00;89.20;;;;;;5120377;28;20077;-88
2021/06/04 07:22:55;;;;;;;7.40;4.70;;;22.00;90.30;;;;;;5122483;28;20016;-83
2021/06/04 07:25:23;;;;;;;9.48;5.07;;;22.20;89.50;;;;;;5121431;28;20032;-80
2021/06/04 07:27:49;;;;;;;6.18;4.57;;;22.40;88.40;;;;;;5117893;28;20026;-86
2021/06/04 07:30:23;;;;;;;8.40;4.60;;;22.60;88.50;;;;;;5124262;28;20016;-86
2021/06/04 07:32:50;;;;;;;9.48;4.70;;;22.50;88.30;;;;;;5123654;28;20020;-88
2021/06/04 07:35:18;;;;;;;8.82;4.57;;;22.60;86.30;;;;;;5122001;28;20073;-87
2021/06/04 07:37:45;;;;;;;7.50;4.28;;;22.80;84.40;;;;;;5124892;28;20030;-90
2021/06/04 07:40:17;;;;;;;6.43;4.20;;;23.20;88.70;;;;;;5124052;28;20024;-86
2021/06/04 07:42:43;;;;;;;8.73;4.60;;;23.30;85.20;;;;;;5123636;28;20020;-77
2021/06/04 07:45:10;;;;;;;6.80;4.07;;;23.20;82.80;;;;;;5121987;28;20027;-88
2021/06/04 07:47:36;;;;;;;7.60;4.40;;;23.60;82.10;;;;;;5123062;28;20020;-89
2021/06/04 07:50:06;;;;;;;7.03;4.30;;;23.70;81.50;;;;;;5118260;28;20040;-79
2021/06/04 07:52:37;;;;;;;11.18;5.35;;;23.60;78.90;;;;;;5119251;28;20539;-85
2021/06/04 07:55:05;;;;;;;8.68;4.60;;;23.70;76.20;;;;;;5117819;28;20051;-85
2021/06/04 07:57:31;;;;;;;7.50;4.30;;;24.00;78.60;;;;;;5122197;28;20028;-79
2021/06/04 07:59:57;;;;;;;5.05;3.47;;;24.20;73.80;;;;;;5122420;28;20114;-87
2021/06/04 08:02:23;;;;;;;5.03;2.85;;;24.50;74.00;;;;;;5120885;28;20031;-85
2021/06/04 08:04:51;;;;;;;4.68;2.50;;;24.60;75.30;;;;;;5119889;28;20041;-77
2021/06/04 08:07:18;;;;;;;7.35;2.80;;;24.70;70.60;;;;;;5122651;28;20015;-85
2021/06/04 08:09:44;;;;;;;7.25;3.00;;;;;;;;;;5119499;28;20483;-80
2021/06/04 08:12:15;;;;;;;4.70;2.70;;;25.30;72.80;;;;;;5118513;28;20503;-88
2021/06/04 08:14:41;;;;;;;5.40;2.45;;;25.30;69.30;;;;;;5121020;28;20110;-84
2021/06/04 08:17:08;;;;;;;5.28;2.40;;;25.30;69.30;;;;;;5119105;28;20023;-87
2021/06/04 08:19:35;;;;;;;3.20;2.40;;;25.40;65.80;;;;;;5126633;28;20027;-87
2021/06/04 08:22:06;;;;;;;4.70;2.42;;;25.40;68.00;;;;;;5124908;28;20488;-81
2021/06/04 08:24:34;;;;;;;4.65;2.50;;;25.50;66.40;;;;;;5124285;28;20475;-88
2021/06/04 08:27:02;;;;;;;4.60;2.47;;;25.70;63.10;;;;;;5125932;27;20063;-92
2021/06/04 08:29:31;;;;;;;7.25;2.72;;;25.90;67.10;;;;;;5127150;28;20027;-92
2021/06/04 08:31:58;;;;;;;5.30;2.47;;;25.60;63.00;;;;;;5128229;28;20008;-91
2021/06/04 08:34:26;;;;;;;4.15;2.60;;;25.60;60.80;;;;;;5124811;28;20014;-91
2021/06/04 08:36:52;;;;;;;5.20;2.70;;;25.50;63.40;;;;;;5124004;28;20019;-91
2021/06/04 08:39:27;;;;;;;6.40;2.45;;;25.90;63.80;;;;;;5120843;27;20032;-81
2021/06/04 08:42:27;;;;;;;4.32;2.40;;;26.20;63.00;;;;;;5125004;28;20023;-85
2021/06/04 08:45:29;;;;;;;3.47;2.20;;;26.60;60.00;;;;;;5122034;28;20016;-87
2021/06/04 08:48:12;;;;;;;4.10;2.15;;;26.80;57.30;;;;;;5125567;28;20008;-87
2021/06/04 08:50:49;;;;;;;11.63;2.45;;;26.70;59.30;;;;;;5128534;27;20023;-91
2021/06/04 08:53:41;;;;;;;3.92;2.10;;;27.00;57.90;;;;;;5127540;28;20102;-91
2021/06/04 08:56:19;;;;;;;4.78;1.98;;;27.30;55.50;;;;;;5116272;28;20088;-92
2021/06/04 08:58:51;;;;;;;4.40;2.20;;;27.30;56.30;;;;;;5124114;28;20024;-91
2021/06/04 09:01:23;;;;;;;6.38;2.00;;;27.30;58.50;;;;;;5126089;28;20046;-90
2021/06/04 09:04:09;;;;;;;3.03;2.10;;;27.40;55.60;;;;;;5122556;28;20011;-91
2021/06/04 09:06:49;;;;;;;3.55;2.03;;;27.70;55.90;;;;;;5125289;28;20153;-91
2021/06/04 09:09:44;;;;;;;3.63;2.00;;;27.90;61.00;;;;;;5124772;28;20024;-92
2021/06/04 09:12:19;;;;;;;3.65;2.10;;;28.00;56.40;;;;;;5122957;28;20061;-91
2021/06/04 09:14:47;;;;;;;4.30;1.90;;;28.10;53.90;;;;;;5124711;28;20043;-91
2021/06/04 09:17:57;;;;;;;4.20;2.00;;;27.90;52.30;;;;;;5124464;28;20481;-90
2021/06/04 09:20:27;;;;;;;4.60;1.90;;;28.10;52.40;;;;;;5082709;28;20111;-89
2021/06/04 09:23:00;;;;;;;5.50;2.00;;;28.20;53.00;;;;;;5078975;28;20162;-87
2021/06/04 09:25:27;;;;;;;5.07;2.00;;;28.30;55.60;;;;;;5078983;28;20047;-92
2021/06/04 09:28:14;;;;;;;2.85;1.73;;;28.50;53.40;;;;;;5081514;28;20021;-89
2021/06/04 09:30:59;;;;;;;3.80;2.00;;;28.60;54.00;;;;;;5077329;28;20120;-90
2021/06/04 09:33:33;;;;;;;4.32;2.08;;;28.50;50.30;;;;;;5080864;28;20075;-81
2021/06/04 09:36:08;;;;;;;4.65;1.90;;;28.30;49.30;;;;;;5080662;28;20076;-89
2021/06/04 09:38:48;;;;;;;4.97;2.65;;;27.60;51.00;;;;;;5065151;28;20064;-89
2021/06/04 09:41:19;;;;;;;5.32;2.03;;;27.80;52.70;;;;;;5081531;28;20093;-90
2021/06/04 09:43:48;;;;;;;4.70;2.00;;;28.10;50.50;;;;;;5068198;28;20032;-90
2021/06/04 09:46:29;;;;;;;3.38;1.80;;;28.20;51.50;;;;;;5063686;28;20048;-91
2021/06/04 09:49:00;;;;;;;3.33;1.65;;;28.70;53.80;;;;;;5082149;28;20098;-91
2021/06/04 09:51:26;;;;;;;2.92;1.60;;;28.20;47.40;;;;;;5111304;28;20040;-90
2021/06/04 09:53:53;;;;;;;3.08;1.70;;;28.10;48.30;;;;;;5120139;28;20019;-80
2021/06/04 09:56:31;;;;;;;7.32;1.80;;;27.60;48.50;;;;;;5125204;28;20036;-90
2021/06/04 09:59:04;;;;;;;3.63;1.73;;;27.40;50.30;;;;;;5120461;28;20027;-90
2021/06/04 10:01:43;;;;;;;3.42;1.85;;;27.80;51.90;;;;;;5123218;28;20050;-90
2021/06/04 10:04:16;;;;;;;2.60;1.90;;;28.00;48.70;;;;;;5119583;28;20549;-90
2021/06/04 10:06:58;;;;;;;4.57;2.22;;;27.90;48.20;;;;;;5117863;28;20027;-83
2021/06/04 10:09:34;;;;;;;3.75;1.90;;;28.30;49.90;;;;;;5117114;28;20157;-90
2021/06/04 10:12:04;;;;;;;8.63;2.28;;;28.40;51.90;;;;;;5117575;28;20492;-89
2021/06/04 10:14:57;;;;;;;6.85;2.20;;;28.60;50.70;;;;;;5118376;28;20027;-90
2021/06/04 10:17:47;;;;;;;5.00;1.80;;;29.10;50.20;;;;;;5119289;28;20031;-83
2021/06/04 10:20:30;;;;;;;5.85;2.00;;;29.20;49.50;;;;;;5122355;27;20034;-88
2021/06/04 10:23:13;;;;;;;5.95;2.10;;;29.40;49.50;;;;;;5120152;28;20449;-79
2021/06/04 10:25:47;;;;;;;2.72;1.98;;;29.50;49.60;;;;;;5121420;28;20100;-82
2021/06/04 10:28:37;;;;;;;4.18;1.92;;;29.70;51.00;;;;;;5125966;28;20023;-86
2021/06/04 10:31:29;;;;;;;5.25;2.10;;;29.70;48.40;;;;;;5114908;28;20123;-89
2021/06/04 10:34:10;;;;;;;4.63;2.00;;;29.70;48.30;;;;;;5114814;28;20024;-79
2021/06/04 10:36:39;;;;;;;5.47;2.40;;;30.00;49.00;;;;;;5126645;28;20020;-89
2021/06/04 10:39:09;;;;;;;8.45;3.30;;;30.10;49.10;;;;;;5118838;28;20019;-78
2021/06/04 10:42:00;;;;;;;5.90;2.55;;;29.20;47.00;;;;;;5118488;28;20369;-83
2021/06/04 10:44:59;;;;;;;3.72;2.10;;;29.60;50.30;;;;;;5118774;28;20079;-80
2021/06/04 10:47:46;;;;;;;5.20;2.17;;;29.90;51.10;;;;;;5098583;28;20028;-83
2021/06/04 10:50:21;;;;;;;4.70;2.20;;;29.70;46.60;;;;;;5125369;28;20157;-87
2021/06/04 10:52:50;;;;;;;4.18;2.17;;;28.70;49.70;;;;;;5117456;28;20373;-87
2021/06/04 10:56:04;;;;;;;4.47;1.98;;;29.40;49.80;;;;;;5128436;28;20031;-80
2021/06/04 10:58:41;;;;;;;4.20;2.13;;;29.90;48.40;;;;;;5075996;28;20036;-86
2021/06/04 11:01:13;;;;;;;4.28;2.10;;;29.40;49.50;;;;;;5081006;28;20036;-88
2021/06/04 11:04:13;;;;;;;4.32;2.10;;;29.70;50.00;;;;;;5096160;28;20023;-88
2021/06/04 11:07:06;;;;;;;7.60;2.28;;;29.70;49.80;;;;;;5122841;28;20016;-89
2021/06/04 11:09:50;;;;;;;5.50;2.83;;;28.60;48.80;;;;;;5121199;28;20035;-82
2021/06/04 11:12:36;;;;;;;;;;;27.70;49.40;;;;;;5123863;28;20021;-90
2021/06/04 11:15:24;;;;;;;5.63;2.30;;;27.40;50.70;;;;;;5112770;28;19943;-79
2021/06/04 11:18:38;;;;;;;8.93;2.35;;;26.80;49.40;;;;;;5126032;28;20031;-91
2021/06/04 11:21:13;;;;;;;4.15;2.20;;;26.60;50.10;;;;;;5116969;28;20382;-89
2021/06/04 11:23:50;;;;;;;6.95;2.00;;;27.40;53.70;;;;;;5129495;28;20023;-90
2021/06/04 11:26:41;;;;;;;5.53;1.90;;;27.90;50.10;;;;;;5126835;28;20029;-82
2021/06/04 11:29:20;;;;;;;6.45;2.00;;;28.70;52.10;;;;;;5128571;28;20011;-90
2021/06/04 11:31:55;;;;;;;4.28;2.20;;;29.20;49.60;;;;;;5107284;28;20050;-89
2021/06/04 11:34:49;;;;;;;7.68;2.10;;;28.70;47.90;;;;;;5127473;28;20028;-80
2021/06/04 11:37:39;;;;;;;5.22;2.28;;;29.10;49.40;;;;;;5125932;28;20027;-89
2021/06/04 11:40:09;;;;;;;4.78;1.98;;;29.30;47.50;;;;;;5123848;28;20075;-87
2021/06/04 11:42:55;;;;;;;4.13;1.90;;;29.50;50.90;;;;;;5124194;28;20037;-88
2021/06/04 11:45:24;;;;;;;4.60;2.03;;;29.90;47.60;;;;;;5125397;28;20373;-81
2021/06/04 11:47:51;;;;;;;4.82;1.90;;;30.30;47.80;;;;;;5125230;28;20076;-87
2021/06/04 11:50:33;;;;;;;4.13;2.20;;;30.10;47.80;;;;;;5124636;28;20016;-88
2021/06/04 11:53:29;;;;;;;4.50;1.90;;;29.80;47.20;;;;;;5126612;28;20024;-89
2021/06/04 11:55:55;;;;;;;4.57;1.90;;;29.70;47.10;;;;;;5127777;28;20027;-90
2021/06/04 11:58:30;;;;;;;5.28;1.90;;;29.40;46.50;;;;;;5124296;28;20059;-84
2021/06/04 12:01:31;;;;;;;2.85;1.80;;;29.30;47.40;;;;;;5127278;28;20036;-88
2021/06/04 12:04:29;;;;;;;3.47;1.90;;;29.60;49.70;;;;;;5126379;28;20029;-81
2021/06/04 12:07:01;;;;;;;6.95;2.20;;;29.00;49.50;;;;;;5066965;28;20041;-89
2021/06/04 12:09:32;;;;;;;6.35;2.50;;;28.50;48.60;;;;;;5085040;28;20031;-90
2021/06/04 12:12:31;;;;;;;8.10;2.35;;;28.00;48.90;;;;;;5066974;28;20032;-90
2021/06/04 12:14:57;;;;;;;5.07;1.98;;;27.80;53.70;;;;;;5086068;28;20033;-88
2021/06/04 12:17:30;;;;;;;5.22;2.40;;;27.50;52.30;;;;;;5067562;28;20397;-86
2021/06/04 12:20:15;;;;;;;5.70;2.00;;;;;;;;;;5068363;28;20029;-89
2021/06/04 12:22:47;;;;;;;6.03;2.50;;;28.70;50.50;;;;;;5068186;28;20088;-86
2021/06/04 12:25:33;;;;;;;7.15;2.30;;;29.00;50.30;;;;;;5064199;28;20039;-79
2021/06/04 12:28:05;;;;;;;6.80;1.85;;;29.50;48.80;;;;;;5082168;28;20072;-88
2021/06/04 12:31:00;;;;;;;4.72;1.98;;;29.80;49.40;;;;;;5083167;28;20036;-82
2021/06/04 12:33:51;;;;;;;4.88;1.98;;;30.10;50.10;;;;;;5083317;28;20082;-90
2021/06/04 12:36:41;;;;;;;3.60;2.03;;;30.40;49.70;;;;;;5083079;28;20098;-89
2021/06/04 12:39:24;;;;;;;6.38;1.92;;;30.70;50.10;;;;;;5067721;28;20016;-89
2021/06/04 12:42:14;;;;;;;5.10;2.30;;;30.80;48.40;;;;;;5089246;28;20067;-89
2021/06/04 12:44:52;;;;;;;4.38;1.80;;;31.10;49.80;;;;;;5103839;28;20043;-90
2021/06/04 12:47:24;;;;;;;5.88;2.05;;;;;;;;;;5105121;28;20016;-88
2021/06/04 12:49:50;;;;;;;6.82;1.98;;;30.90;46.30;;;;;;5110724;28;20024;-88
2021/06/04 12:52:20;;;;;;;7.55;2.10;;;30.60;47.30;;;;;;5126810;28;20115;-89
2021/06/04 12:54:46;;;;;;;4.30;1.92;;;30.10;45.80;;;;;;5124074;28;20465;-89
2021/06/04 12:57:26;;;;;;;4.60;1.80;;;30.20;45.10;;;;;;5124476;28;20027;-79
2021/06/04 12:59:52;;;;;;;3.70;1.90;;;30.50;49.90;;;;;;5128923;28;20024;-80
2021/06/04 13:02:24;;;;;;;3.22;1.77;;;31.00;50.00;;;;;;5126162;28;20008;-89
2021/06/04 13:04:54;;;;;;;4.97;1.88;;;31.40;48.90;;;;;;5128892;28;20461;-90
2021/06/04 13:07:23;;;;;;;4.82;2.10;;;31.10;48.20;;;;;;5128308;28;20008;-87
2021/06/04 13:10:23;;;;;;;3.30;1.85;;;31.30;48.60;;;;;;5129275;28;19999;-89
2021/06/04 13:12:53;;;;;;;3.30;2.00;;;30.70;45.80;;;;;;5129639;28;20030;-88
2021/06/04 13:15:27;;;;;;;6.45;2.10;;;30.50;48.00;;;;;;5127855;28;20027;-91